Mc Intosh, Alabama
Current Conditions -  °F | °C
As of 2:56 AM on Friday 31 Oct 2014 (Local Time) from KMOB Reporting Station
Clear Clear  
Wind Chill: 45°   Ceiling: Unl
Heat Index: 45°   Visibility: 10mi
Dew Point: 41°   Wind: 3mph
Humidity: 86%   Direction: 300°WNW
Pressure: 30.02"   Gusts: NA
Location:  31.2336°N, 88.0662°W
Report Text: KMOB 310756Z AUTO 30003KT 10SM CLR 07/05 A3002 RMK AO2 SLP164 T00720050
Loading
Personal Weather Stations






























Interactive Weather Map
Tropical Storm Tracking
New forecast layout! Learn more

10-Day Weather Forecast

Advertisements
Track Severe Weather on mobile